Time;durP1;ratioP1;P1;durP2;ratioP2;P2;SDS_P1;SDS_P2;PMS_P1;PMS_P2;Temp;Humidity;BMP_temperature;BMP_pressure;BME280_temperature;BME280_humidity;BME280_pressure;Samples;Min_cycle;Max_cycle;Signal;HPM_P1;HPM_P2
2021/10/05 00:00:14;;;;;;;3.33;2.70;;;;;;;;;;4810083;29;34067;-62
2021/10/05 00:02:41;;;;;;;5.88;3.30;;;;;;;;;;4810363;29;32801;-64
2021/10/05 00:05:09;;;;;;;4.88;2.83;;;;;;;;;;4810736;29;32367;-62
2021/10/05 00:07:37;;;;;;;4.20;2.90;;;;;;;;;;4810401;29;32337;-62
2021/10/05 00:10:07;;;;;;;4.00;2.88;;;;;;;;;;4809111;29;32401;-63
2021/10/05 00:12:33;;;;;;;4.32;3.92;;;;;;;;;;4810383;29;32698;-62
2021/10/05 00:15:00;;;;;;;4.28;2.95;;;;;;;;;;4809864;29;32304;-62
2021/10/05 00:17:27;;;;;;;4.05;2.28;;;;;;;;;;4809786;29;32508;-62
2021/10/05 00:19:53;;;;;;;2.47;2.28;;;;;;;;;;4810196;29;32803;-62
2021/10/05 00:22:20;;;;;;;4.30;2.88;;;;;;;;;;4809853;29;35918;-64
2021/10/05 00:24:47;;;;;;;5.60;2.20;;;;;;;;;;4810237;29;32248;-63
2021/10/05 00:27:14;;;;;;;3.78;2.80;;;;;;;;;;4809639;29;32535;-62
2021/10/05 00:29:41;;;;;;;5.07;3.00;;;;;;;;;;4810466;29;32437;-65
2021/10/05 00:32:07;;;;;;;4.75;2.55;;;;;;;;;;4806139;29;32374;-63
2021/10/05 00:34:34;;;;;;;4.65;2.83;;;;;;;;;;4810967;29;32422;-62
2021/10/05 00:37:00;;;;;;;3.65;2.55;;;;;;;;;;4806093;29;33603;-63
2021/10/05 00:39:27;;;;;;;2.90;2.45;;;;;;;;;;4809358;29;32393;-62
2021/10/05 00:41:55;;;;;;;3.90;3.08;;;;;;;;;;4811106;29;32408;-62
2021/10/05 00:44:30;;;;;;;3.95;2.83;;;;;;;;;;4792357;29;35309;-62
2021/10/05 00:47:00;;;;;;;3.58;2.92;;;;;;;;;;4792088;29;32565;-62
2021/10/05 00:49:27;;;;;;;4.95;2.78;;;;;;;;;;4791879;29;32328;-63
2021/10/05 00:51:54;;;;;;;4.40;3.40;;;;;;;;;;4791601;29;32371;-65
2021/10/05 00:54:21;;;;;;;4.57;2.85;;;;;;;;;;4792743;29;32241;-61
2021/10/05 00:56:47;;;;;;;3.55;2.72;;;;;;;;;;4799805;29;32453;-62
2021/10/05 00:59:15;;;;;;;3.60;2.63;;;;;;;;;;4807112;29;32571;-62
2021/10/05 01:01:41;;;;;;;3.10;2.63;;;;;;;;;;4804145;29;32578;-62
2021/10/05 01:04:08;;;;;;;3.63;3.08;;;;;;;;;;4810608;29;32361;-64
2021/10/05 01:06:34;;;;;;;5.05;2.80;;;;;;;;;;4810727;29;34079;-66
2021/10/05 01:09:01;;;;;;;4.90;2.70;;;;;;;;;;4811067;29;32612;-62
2021/10/05 01:11:27;;;;;;;3.50;2.75;;;;;;;;;;4811148;29;32268;-63
2021/10/05 01:13:54;;;;;;;4.30;2.95;;;;;;;;;;4810628;29;32396;-61
2021/10/05 01:16:22;;;;;;;3.50;2.47;;;;;;;;;;4810444;29;32526;-62
2021/10/05 01:18:48;;;;;;;6.65;3.17;;;;;;;;;;4810340;29;32547;-61
2021/10/05 01:21:16;;;;;;;6.55;2.90;;;;;;;;;;4810747;29;32460;-65
2021/10/05 01:23:43;;;;;;;3.65;3.33;;;;;;;;;;4811313;29;32298;-64
2021/10/05 01:26:09;;;;;;;4.43;3.03;;;;;;;;;;4810859;29;32515;-62
2021/10/05 01:28:36;;;;;;;3.45;3.03;;;;;;;;;;4810866;29;34044;-62
2021/10/05 01:31:02;;;;;;;4.65;2.47;;;;;;;;;;4810410;29;32569;-62
2021/10/05 01:33:29;;;;;;;4.00;2.28;;;;;;;;;;4810963;29;32503;-63
2021/10/05 01:35:56;;;;;;;4.35;2.67;;;;;;;;;;4810276;29;32487;-62
2021/10/05 01:38:24;;;;;;;4.32;2.50;;;;;;;;;;4804151;29;34695;-65
2021/10/05 01:40:51;;;;;;;3.90;3.15;;;;;;;;;;4810650;29;32477;-61
2021/10/05 01:43:17;;;;;;;3.95;2.72;;;;;;;;;;4806139;29;32500;-61
2021/10/05 01:45:45;;;;;;;3.53;2.38;;;;;;;;;;4811528;29;32677;-63
2021/10/05 01:48:11;;;;;;;5.35;2.67;;;;;;;;;;4811026;29;32334;-62
2021/10/05 01:50:38;;;;;;;4.15;1.95;;;;;;;;;;4810545;29;34247;-62
2021/10/05 01:53:05;;;;;;;3.55;2.08;;;;;;;;;;4810176;29;32310;-62
2021/10/05 01:55:33;;;;;;;3.88;2.10;;;;;;;;;;4811251;29;32279;-61
2021/10/05 01:58:00;;;;;;;2.75;1.80;;;;;;;;;;4811024;29;32280;-61
2021/10/05 02:00:27;;;;;;;3.05;2.60;;;;;;;;;;4810500;29;35472;-62
2021/10/05 02:02:54;;;;;;;4.22;2.13;;;;;;;;;;4810675;29;32370;-63
2021/10/05 02:05:20;;;;;;;;;;;;;;;;;;4810588;29;32369;-62
2021/10/05 02:07:47;;;;;;;4.43;3.40;;;;;;;;;;4810565;29;32417;-62
2021/10/05 02:10:13;;;;;;;4.70;2.55;;;;;;;;;;4808904;29;32393;-62
2021/10/05 02:12:41;;;;;;;2.90;1.85;;;;;;;;;;4809929;29;34757;-61
2021/10/05 02:15:09;;;;;;;5.63;3.08;;;;;;;;;;4809680;29;32612;-63
2021/10/05 02:17:35;;;;;;;4.18;3.45;;;;;;;;;;4810421;29;32346;-62
2021/10/05 02:20:03;;;;;;;4.38;2.97;;;;;;;;;;4810418;29;32309;-64
2021/10/05 02:22:29;;;;;;;3.53;3.00;;;;;;;;;;4793837;29;34186;-63
2021/10/05 02:24:56;;;;;;;5.10;3.13;;;;;;;;;;4792357;29;32529;-65
2021/10/05 02:27:23;;;;;;;4.05;2.70;;;;;;;;;;4808721;29;32473;-63
2021/10/05 02:29:51;;;;;;;3.42;2.72;;;;;;;;;;4810817;29;32445;-62
2021/10/05 02:32:17;;;;;;;4.53;3.22;;;;;;;;;;4810220;29;32862;-64
2021/10/05 02:34:44;;;;;;;4.18;2.80;;;;;;;;;;4810362;29;34402;-63
2021/10/05 02:37:11;;;;;;;6.20;2.90;;;;;;;;;;4809699;29;32432;-63
2021/10/05 02:39:38;;;;;;;5.82;2.92;;;;;;;;;;4809476;29;32385;-63
2021/10/05 02:42:05;;;;;;;4.70;2.95;;;;;;;;;;4795440;29;32413;-62
2021/10/05 02:44:32;;;;;;;;;;;;;;;;;;4792251;29;34253;-64
2021/10/05 02:47:00;;;;;;;4.10;2.85;;;;;;;;;;4796744;29;32328;-62
2021/10/05 02:49:26;;;;;;;4.68;2.75;;;;;;;;;;4810773;29;32565;-61
2021/10/05 02:51:53;;;;;;;3.92;2.30;;;;;;;;;;4806379;29;32362;-63
2021/10/05 02:54:19;;;;;;;4.15;3.15;;;;;;;;;;4807851;29;33587;-61
2021/10/05 02:56:45;;;;;;;3.05;2.03;;;;;;;;;;4798684;29;35028;-64
2021/10/05 02:59:14;;;;;;;3.70;2.72;;;;;;;;;;4799530;29;32358;-63
2021/10/05 03:01:40;;;;;;;3.25;2.72;;;;;;;;;;4804650;29;32286;-65
2021/10/05 03:04:08;;;;;;;6.35;2.70;;;;;;;;;;4809454;29;32485;-63
2021/10/05 03:06:35;;;;;;;3.55;1.88;;;;;;;;;;4806994;29;35546;-61
2021/10/05 03:09:01;;;;;;;4.60;3.42;;;;;;;;;;4812475;29;32243;-63
2021/10/05 03:11:28;;;;;;;4.00;3.08;;;;;;;;;;4796212;29;32487;-62
2021/10/05 03:13:54;;;;;;;3.88;2.70;;;;;;;;;;4812418;29;32259;-62
2021/10/05 03:16:21;;;;;;;5.18;3.25;;;;;;;;;;4812738;29;32552;-67
2021/10/05 03:18:47;;;;;;;5.90;3.30;;;;;;;;;;4808410;29;35286;-63
2021/10/05 03:21:16;;;;;;;5.55;3.20;;;;;;;;;;4795535;29;32420;-62
2021/10/05 03:23:42;;;;;;;3.90;3.10;;;;;;;;;;4803045;29;32505;-63
2021/10/05 03:26:09;;;;;;;5.45;3.35;;;;;;;;;;4797098;29;32469;-64
2021/10/05 03:28:36;;;;;;;4.43;3.15;;;;;;;;;;4792531;29;35313;-63
2021/10/05 03:31:03;;;;;;;5.07;3.22;;;;;;;;;;4812057;29;32294;-67
2021/10/05 03:33:29;;;;;;;7.13;3.47;;;;;;;;;;4811784;29;32361;-66
2021/10/05 03:35:56;;;;;;;8.27;3.63;;;;;;;;;;4811788;29;32409;-64
2021/10/05 03:38:24;;;;;;;4.22;3.30;;;;;;;;;;4810534;29;32713;-64
2021/10/05 03:40:50;;;;;;;5.85;3.38;;;;;;;;;;4810823;29;35551;-66
2021/10/05 03:43:17;;;;;;;4.20;2.95;;;;;;;;;;4810081;29;32851;-63
2021/10/05 03:45:43;;;;;;;5.47;3.38;;;;;;;;;;4810736;29;32489;-62
2021/10/05 03:48:12;;;;;;;5.63;3.20;;;;;;;;;;4812332;29;32293;-64
2021/10/05 03:50:39;;;;;;;5.50;3.15;;;;;;;;;;4811263;29;35105;-63
2021/10/05 03:53:05;;;;;;;6.53;3.42;;;;;;;;;;4807568;29;32515;-67
2021/10/05 03:55:33;;;;;;;3.80;3.22;;;;;;;;;;4812531;29;32361;-67
2021/10/05 03:58:00;;;;;;;6.90;3.38;;;;;;;;;;4812469;29;32460;-63
2021/10/05 04:00:26;;;;;;;6.07;3.85;;;;;;;;;;4808139;29;32117;-63
2021/10/05 04:02:53;;;;;;;4.38;3.22;;;;;;;;;;4811430;29;34735;-64
2021/10/05 04:05:19;;;;;;;5.47;3.42;;;;;;;;;;4812332;29;32412;-63
2021/10/05 04:07:46;;;;;;;5.13;3.53;;;;;;;;;;4812137;29;32427;-65
2021/10/05 04:10:12;;;;;;;5.40;3.38;;;;;;;;;;4811261;29;32394;-67
2021/10/05 04:12:40;;;;;;;6.88;3.65;;;;;;;;;;4811901;29;34562;-66
2021/10/05 04:15:07;;;;;;;4.55;3.95;;;;;;;;;;4810930;29;32523;-63
2021/10/05 04:17:34;;;;;;;8.70;3.47;;;;;;;;;;4811248;29;32403;-65
2021/10/05 04:20:00;;;;;;;4.22;2.80;;;;;;;;;;4808986;29;32443;-64
2021/10/05 04:22:28;;;;;;;6.10;3.13;;;;;;;;;;4811341;29;32379;-63
2021/10/05 04:24:54;;;;;;;5.63;3.13;;;;;;;;;;4811984;29;34233;-63
2021/10/05 04:27:20;;;;;;;4.38;3.00;;;;;;;;;;4812053;29;32381;-63
2021/10/05 04:29:48;;;;;;;4.75;3.10;;;;;;;;;;4812097;29;32497;-65
2021/10/05 04:32:15;;;;;;;4.68;3.30;;;;;;;;;;4811507;29;32307;-63
2021/10/05 04:34:43;;;;;;;5.07;3.08;;;;;;;;;;4811071;29;34113;-63
2021/10/05 04:37:09;;;;;;;5.25;3.10;;;;;;;;;;4811498;29;32351;-63
2021/10/05 04:39:37;;;;;;;6.35;3.90;;;;;;;;;;4811285;29;32395;-64
2021/10/05 04:42:04;;;;;;;4.47;3.10;;;;;;;;;;4810638;29;32451;-64
2021/10/05 04:44:30;;;;;;;6.03;2.05;;;;;;;;;;4811433;29;32447;-63
2021/10/05 04:46:58;;;;;;;4.28;2.80;;;;;;;;;;4811429;29;34095;-65
2021/10/05 04:49:25;;;;;;;5.22;2.85;;;;;;;;;;4811849;29;32511;-63
2021/10/05 04:51:51;;;;;;;3.85;2.90;;;;;;;;;;4811137;29;32427;-63
2021/10/05 04:54:18;;;;;;;4.90;2.72;;;;;;;;;;4811504;29;32341;-65
2021/10/05 04:56:45;;;;;;;3.88;2.50;;;;;;;;;;4811442;29;34643;-64
2021/10/05 04:59:11;;;;;;;;;;;;;;;;;;4811813;29;32153;-67
2021/10/05 05:01:37;;;;;;;3.85;2.78;;;;;;;;;;4810994;29;32339;-64
2021/10/05 05:04:05;;;;;;;6.68;2.88;;;;;;;;;;4810828;29;32303;-62
2021/10/05 05:06:32;;;;;;;4.70;2.70;;;;;;;;;;4807666;29;32457;-65
2021/10/05 05:08:58;;;;;;;;;;;;;;;;;;4810734;29;35691;-63
2021/10/05 05:11:24;;;;;;;5.55;3.13;;;;;;;;;;4810983;29;32333;-63
2021/10/05 05:13:51;;;;;;;4.70;2.95;;;;;;;;;;4810853;29;32426;-64
2021/10/05 05:16:17;;;;;;;;;;;;;;;;;;4811823;29;32399;-61
2021/10/05 05:18:44;;;;;;;5.22;3.10;;;;;;;;;;4810726;29;34146;-63
2021/10/05 05:21:12;;;;;;;5.68;3.10;;;;;;;;;;4811292;29;32480;-64
2021/10/05 05:23:38;;;;;;;5.40;3.22;;;;;;;;;;4811391;29;32277;-64
2021/10/05 05:26:05;;;;;;;5.22;3.28;;;;;;;;;;4811381;29;32448;-66
2021/10/05 05:28:31;;;;;;;6.47;2.92;;;;;;;;;;4811243;29;32446;-63
2021/10/05 05:30:58;;;;;;;4.82;2.95;;;;;;;;;;4811015;29;34941;-64
2021/10/05 05:33:24;;;;;;;;;;;;;;;;;;4810931;29;32755;-65
2021/10/05 05:35:50;;;;;;;4.18;2.80;;;;;;;;;;4809666;29;32496;-66
2021/10/05 05:38:21;;;;;;;4.88;2.90;;;;;;;;;;4811425;29;32430;-65
2021/10/05 05:40:48;;;;;;;6.50;2.95;;;;;;;;;;4810826;29;35145;-63
2021/10/05 05:43:15;;;;;;;5.63;3.03;;;;;;;;;;4811081;29;32323;-65
2021/10/05 05:45:41;;;;;;;6.07;2.85;;;;;;;;;;4811029;29;32329;-63
2021/10/05 05:48:08;;;;;;;4.72;2.83;;;;;;;;;;4811002;29;32349;-63
2021/10/05 05:50:34;;;;;;;;;;;;;;;;;;4811942;29;32259;-63
2021/10/05 05:53:00;;;;;;;5.55;3.00;;;;;;;;;;4810599;29;34555;-64
2021/10/05 05:55:28;;;;;;;5.05;3.05;;;;;;;;;;4810612;29;32279;-63
2021/10/05 05:57:55;;;;;;;7.18;2.60;;;;;;;;;;4810829;29;32410;-63
2021/10/05 06:00:21;;;;;;;5.88;2.90;;;;;;;;;;4810647;29;32522;-63
2021/10/05 06:02:48;;;;;;;4.70;2.30;;;;;;;;;;4810880;29;35048;-63
2021/10/05 06:05:15;;;;;;;7.18;3.17;;;;;;;;;;4810628;29;32474;-66
2021/10/05 06:07:41;;;;;;;6.82;2.80;;;;;;;;;;4806246;29;32647;-66
2021/10/05 06:10:09;;;;;;;5.32;3.25;;;;;;;;;;4806435;29;32366;-63
2021/10/05 06:12:39;;;;;;;4.68;2.88;;;;;;;;;;4810751;29;32304;-63
2021/10/05 06:15:07;;;;;;;4.07;2.80;;;;;;;;;;4808836;29;35509;-64
2021/10/05 06:17:39;;;;;;;4.57;2.80;;;;;;;;;;4809615;29;32885;-63
2021/10/05 06:20:07;;;;;;;4.25;3.00;;;;;;;;;;4809004;29;32397;-66
2021/10/05 06:22:34;;;;;;;4.28;2.20;;;;;;;;;;4808760;29;32483;-63
2021/10/05 06:25:01;;;;;;;5.43;2.60;;;;;;;;;;4791646;29;34633;-63
2021/10/05 06:27:27;;;;;;;5.95;3.33;;;;;;;;;;4809295;29;32439;-63
2021/10/05 06:29:58;;;;;;;;;;;;;;;;;;4810682;29;32427;-63
2021/10/05 06:32:24;;;;;;;3.20;2.13;;;;;;;;;;4810394;29;32476;-63
2021/10/05 06:34:51;;;;;;;7.18;3.20;;;;;;;;;;4810384;29;32224;-64
2021/10/05 06:37:17;;;;;;;;;;;;;;;;;;4810717;29;34650;-66
2021/10/05 06:39:43;;;;;;;6.05;3.10;;;;;;;;;;4799853;29;32738;-63
2021/10/05 06:42:10;;;;;;;;;;;;;;;;;;4801382;29;32479;-65
2021/10/05 06:44:37;;;;;;;5.03;3.13;;;;;;;;;;4799476;29;32348;-63
2021/10/05 06:47:05;;;;;;;5.78;3.33;;;;;;;;;;4797501;29;34519;-63
2021/10/05 06:49:32;;;;;;;6.03;3.33;;;;;;;;;;4793722;29;32573;-64
2021/10/05 06:52:00;;;;;;;7.00;3.17;;;;;;;;;;4798059;29;32280;-63
2021/10/05 06:54:27;;;;;;;4.03;3.03;;;;;;;;;;4804264;29;32338;-66
2021/10/05 06:56:54;;;;;;;4.60;3.13;;;;;;;;;;4803392;29;32527;-63
2021/10/05 06:59:20;;;;;;;;;;;;;;;;;;4807783;29;34851;-62
2021/10/05 07:01:46;;;;;;;5.85;3.47;;;;;;;;;;4808238;29;32734;-65
2021/10/05 07:04:14;;;;;;;;;;;;;;;;;;4809418;29;32190;-63
2021/10/05 07:06:41;;;;;;;5.55;2.90;;;;;;;;;;4808711;29;32432;-63
2021/10/05 07:09:07;;;;;;;4.80;2.67;;;;;;;;;;4808429;29;35087;-63
2021/10/05 07:11:35;;;;;;;3.72;2.90;;;;;;;;;;4809600;29;32473;-66
2021/10/05 07:14:02;;;;;;;5.13;2.00;;;;;;;;;;4800084;29;32302;-64
2021/10/05 07:16:29;;;;;;;5.03;2.83;;;;;;;;;;4808448;29;32521;-62
2021/10/05 07:18:55;;;;;;;;;;;;;;;;;;4792920;29;32466;-63
2021/10/05 07:21:23;;;;;;;9.30;4.75;;;;;;;;;;4808746;29;34529;-62
2021/10/05 07:23:50;;;;;;;8.73;5.25;;;;;;;;;;4809319;29;32374;-64
2021/10/05 07:26:17;;;;;;;7.75;4.57;;;;;;;;;;4806207;29;32579;-62
2021/10/05 07:28:43;;;;;;;6.50;3.60;;;;;;;;;;4808617;29;32310;-62
2021/10/05 07:31:10;;;;;;;9.43;4.18;;;;;;;;;;4808687;29;35802;-63
2021/10/05 07:33:36;;;;;;;;;;;;;;;;;;4807020;29;32472;-65
2021/10/05 07:36:02;;;;;;;11.52;7.85;;;;;;;;;;4808648;29;32378;-62
2021/10/05 07:38:31;;;;;;;7.82;5.18;;;;;;;;;;4811792;29;32378;-62
2021/10/05 07:40:57;;;;;;;8.18;4.32;;;;;;;;;;4812452;29;32996;-62
2021/10/05 07:43:24;;;;;;;5.63;4.18;;;;;;;;;;4811023;29;35444;-62
2021/10/05 07:45:52;;;;;;;;;;;;;;;;;;4811986;29;32334;-63
2021/10/05 07:48:19;;;;;;;8.25;4.60;;;;;;;;;;4811617;29;32280;-62
2021/10/05 07:50:45;;;;;;;7.35;4.03;;;;;;;;;;4810713;29;32341;-61
2021/10/05 07:53:12;;;;;;;9.35;4.07;;;;;;;;;;4809591;29;34638;-62
2021/10/05 07:55:40;;;;;;;6.70;4.22;;;;;;;;;;4810283;29;32474;-64
2021/10/05 07:58:06;;;;;;;4.88;3.40;;;;;;;;;;4810915;29;32204;-62
2021/10/05 08:00:33;;;;;;;45.03;12.82;;;;;;;;;;4809918;29;32858;-64
2021/10/05 08:02:59;;;;;;;;;;;;;;;;;;4809180;29;32587;-61
2021/10/05 08:05:26;;;;;;;13.02;5.60;;;;;;;;;;4809145;29;34733;-62
2021/10/05 08:07:57;;;;;;;16.15;5.25;;;;;;;;;;4809178;29;32996;-65
2021/10/05 08:10:24;;;;;;;11.73;4.88;;;;;;;;;;4807181;29;32480;-63
2021/10/05 08:12:52;;;;;;;9.85;4.78;;;;;;;;;;4808696;29;32526;-63
2021/10/05 08:15:19;;;;;;;11.68;4.18;;;;;;;;;;4809558;29;35818;-67
2021/10/05 08:17:45;;;;;;;10.65;4.88;;;;;;;;;;4804615;29;32584;-65
2021/10/05 08:20:12;;;;;;;15.32;5.88;;;;;;;;;;4810543;29;32350;-64
2021/10/05 08:22:39;;;;;;;28.17;8.93;;;;;;;;;;4804167;29;32653;-61
2021/10/05 08:25:07;;;;;;;22.92;7.60;;;;;;;;;;4809287;29;32572;-65
2021/10/05 08:27:34;;;;;;;14.80;6.10;;;;;;;;;;4808681;29;34046;-62
2021/10/05 08:30:01;;;;;;;;;;;;;;;;;;4810267;29;32401;-64
2021/10/05 08:32:27;;;;;;;13.07;5.50;;;;;;;;;;4809494;29;32574;-66
2021/10/05 08:34:54;;;;;;;;;;;;;;;;;;4810909;29;32470;-62
2021/10/05 08:37:20;;;;;;;9.00;3.83;;;;;;;;;;4810169;29;35512;-62
2021/10/05 08:39:46;;;;;;;8.90;4.28;;;;;;;;;;4806709;29;32560;-62
2021/10/05 08:42:14;;;;;;;7.63;4.20;;;;;;;;;;4808387;29;32462;-67
2021/10/05 08:44:40;;;;;;;8.80;4.35;;;;;;;;;;4807910;29;32712;-65
2021/10/05 08:47:08;;;;;;;7.22;3.60;;;;;;;;;;4808428;29;32310;-62
2021/10/05 08:49:36;;;;;;;8.52;4.05;;;;;;;;;;4808661;29;34446;-64
2021/10/05 08:52:03;;;;;;;5.78;3.78;;;;;;;;;;4789320;29;32976;-62
2021/10/05 08:54:30;;;;;;;7.65;4.18;;;;;;;;;;4807348;29;32432;-64
2021/10/05 08:56:56;;;;;;;7.40;2.95;;;;;;;;;;4806791;29;32599;-66
2021/10/05 08:59:22;;;;;;;5.18;3.63;;;;;;;;;;4808574;29;34226;-65
2021/10/05 09:01:50;;;;;;;6.63;3.65;;;;;;;;;;4807146;29;32657;-66
2021/10/05 09:04:18;;;;;;;5.03;3.70;;;;;;;;;;4807750;29;32535;-64
2021/10/05 09:06:51;;;;;;;5.75;3.60;;;;;;;;;;4807642;29;32581;-64
2021/10/05 09:09:19;;;;;;;4.82;2.28;;;;;;;;;;4809457;29;32665;-63
2021/10/05 09:11:49;;;;;;;4.80;3.83;;;;;;;;;;4808532;29;34138;-64
2021/10/05 09:14:16;;;;;;;7.22;3.25;;;;;;;;;;4807440;29;32647;-64
2021/10/05 09:16:43;;;;;;;6.43;3.90;;;;;;;;;;4789758;29;33408;-64
2021/10/05 09:19:13;;;;;;;5.93;3.30;;;;;;;;;;4806248;29;32460;-65
2021/10/05 09:21:43;;;;;;;5.80;3.65;;;;;;;;;;4794260;29;35609;-63
2021/10/05 09:24:12;;;;;;;6.97;3.38;;;;;;;;;;4803250;29;32598;-63
2021/10/05 09:26:43;;;;;;;6.35;3.33;;;;;;;;;;4807377;29;33067;-63
2021/10/05 09:29:14;;;;;;;5.65;3.58;;;;;;;;;;4807205;29;32433;-63
2021/10/05 09:31:57;;;;;;;6.75;3.50;;;;;;;;;;4807738;29;32575;-63
2021/10/05 09:34:44;;;;;;;4.30;3.63;;;;;;;;;;4806492;29;34353;-64
2021/10/05 09:37:15;;;;;;;5.95;3.45;;;;;;;;;;4806925;29;32457;-64
2021/10/05 09:39:46;;;;;;;5.22;4.30;;;;;;;;;;4807888;29;32433;-63
2021/10/05 09:42:20;;;;;;;6.43;3.90;;;;;;;;;;4807789;29;32633;-66
2021/10/05 09:44:55;;;;;;;5.15;4.20;;;;;;;;;;4806389;29;34942;-63
2021/10/05 09:47:37;;;;;;;5.47;3.78;;;;;;;;;;4806982;29;32545;-64
2021/10/05 09:50:12;;;;;;;5.55;4.05;;;;;;;;;;4807117;29;32495;-66
2021/10/05 09:52:46;;;;;;;7.78;3.92;;;;;;;;;;4807123;29;32586;-63
2021/10/05 09:55:13;;;;;;;5.63;3.10;;;;;;;;;;4807653;29;32386;-62
2021/10/05 09:57:40;;;;;;;4.38;3.97;;;;;;;;;;4807175;29;32472;-62
2021/10/05 10:00:09;;;;;;;6.95;4.20;;;;;;;;;;4806813;29;32443;-64
2021/10/05 10:02:37;;;;;;;5.63;4.13;;;;;;;;;;4806730;29;32521;-62
2021/10/05 10:05:06;;;;;;;7.03;4.15;;;;;;;;;;4808398;29;32539;-64
2021/10/05 10:07:36;;;;;;;6.72;4.28;;;;;;;;;;4806119;29;35823;-63
2021/10/05 10:10:07;;;;;;;6.90;3.67;;;;;;;;;;4808446;29;32420;-65
2021/10/05 10:12:34;;;;;;;7.38;4.40;;;;;;;;;;4807129;29;33651;-63
2021/10/05 10:15:02;;;;;;;6.47;3.70;;;;;;;;;;4806318;29;32478;-65
2021/10/05 10:17:28;;;;;;;6.70;3.92;;;;;;;;;;4807256;29;32518;-64
2021/10/05 10:19:55;;;;;;;7.00;4.18;;;;;;;;;;4788186;29;32826;-62
2021/10/05 10:22:21;;;;;;;5.72;4.00;;;;;;;;;;4788563;29;32375;-64
2021/10/05 10:24:51;;;;;;;5.25;4.65;;;;;;;;;;4802346;29;33222;-64
2021/10/05 10:27:20;;;;;;;7.15;4.10;;;;;;;;;;4802871;29;32285;-63
2021/10/05 10:29:47;;;;;;;6.25;4.10;;;;;;;;;;4788562;29;35782;-64
2021/10/05 10:32:17;;;;;;;5.82;4.22;;;;;;;;;;4806769;29;32685;-63
2021/10/05 10:34:46;;;;;;;5.70;4.13;;;;;;;;;;4807383;29;32318;-65
2021/10/05 10:37:18;;;;;;;5.85;3.80;;;;;;;;;;4806231;29;32456;-62
2021/10/05 10:39:46;;;;;;;5.35;4.10;;;;;;;;;;4806666;29;33345;-63
2021/10/05 10:42:26;;;;;;;9.43;4.28;;;;;;;;;;4806447;29;32460;-62
2021/10/05 10:44:53;;;;;;;5.88;3.45;;;;;;;;;;4789513;29;32556;-66
2021/10/05 10:47:23;;;;;;;6.97;4.63;;;;;;;;;;4808365;29;32378;-63
2021/10/05 10:49:55;;;;;;;6.05;4.20;;;;;;;;;;4805867;29;32615;-63
2021/10/05 10:52:26;;;;;;;6.90;4.60;;;;;;;;;;4807288;29;35226;-62
2021/10/05 10:54:54;;;;;;;5.72;4.13;;;;;;;;;;4804911;29;32550;-63
2021/10/05 10:57:32;;;;;;;7.40;4.07;;;;;;;;;;4805923;29;32468;-64
2021/10/05 11:00:17;;;;;;;7.35;4.25;;;;;;;;;;4805826;29;32496;-62
2021/10/05 11:02:45;;;;;;;6.22;4.20;;;;;;;;;;4806596;29;32346;-62
2021/10/05 11:05:12;;;;;;;7.35;4.53;;;;;;;;;;4806741;29;32492;-63
2021/10/05 11:07:39;;;;;;;5.47;3.72;;;;;;;;;;4789223;29;32901;-63
2021/10/05 11:10:08;;;;;;;6.55;4.03;;;;;;;;;;4806285;29;32436;-62
2021/10/05 11:12:39;;;;;;;6.18;4.45;;;;;;;;;;4810246;29;32374;-64
2021/10/05 11:15:08;;;;;;;5.13;4.13;;;;;;;;;;4805048;29;35158;-66
2021/10/05 11:17:36;;;;;;;6.07;4.40;;;;;;;;;;4810359;29;32502;-62
2021/10/05 11:20:08;;;;;;;7.15;4.30;;;;;;;;;;4811010;29;32491;-62
2021/10/05 11:22:35;;;;;;;5.10;3.70;;;;;;;;;;4810578;29;32643;-64
2021/10/05 11:25:03;;;;;;;4.43;4.03;;;;;;;;;;4808765;29;32437;-63
2021/10/05 11:27:30;;;;;;;6.47;4.25;;;;;;;;;;4809550;29;33111;-63
2021/10/05 11:30:06;;;;;;;8.18;4.10;;;;;;;;;;4809520;29;32319;-66
2021/10/05 11:32:33;;;;;;;5.40;3.83;;;;;;;;;;4810536;29;32567;-63
2021/10/05 11:35:00;;;;;;;7.93;3.80;;;;;;;;;;4809966;29;32506;-67
2021/10/05 11:37:27;;;;;;;5.53;4.03;;;;;;;;;;4810081;29;34233;-62
2021/10/05 11:39:55;;;;;;;4.35;3.85;;;;;;;;;;4809244;29;32567;-62
2021/10/05 11:42:24;;;;;;;6.22;3.97;;;;;;;;;;4809115;29;33228;-62
2021/10/05 11:44:54;;;;;;;6.40;4.25;;;;;;;;;;4810595;29;32559;-62
2021/10/05 11:47:25;;;;;;;5.72;4.32;;;;;;;;;;4810642;29;32462;-64
2021/10/05 11:49:58;;;;;;;7.10;4.53;;;;;;;;;;4809896;29;32797;-63
2021/10/05 11:52:29;;;;;;;6.72;4.13;;;;;;;;;;4809860;29;32480;-63
2021/10/05 11:54:56;;;;;;;6.38;4.18;;;;;;;;;;4810327;29;32464;-65
2021/10/05 11:57:26;;;;;;;5.72;3.38;;;;;;;;;;4809506;29;32709;-65
2021/10/05 11:59:55;;;;;;;7.18;3.00;;;;;;;;;;4808550;29;35657;-64
2021/10/05 12:02:24;;;;;;;5.38;3.60;;;;;;;;;;4807684;29;32369;-64
2021/10/05 12:04:52;;;;;;;4.80;3.95;;;;;;;;;;4808671;29;32745;-63
2021/10/05 12:07:21;;;;;;;5.88;4.13;;;;;;;;;;4808634;29;32538;-66
2021/10/05 12:09:49;;;;;;;6.85;4.15;;;;;;;;;;4810281;29;35483;-65
2021/10/05 12:12:17;;;;;;;5.82;3.50;;;;;;;;;;4807355;29;32676;-65
2021/10/05 12:14:53;;;;;;;7.05;3.63;;;;;;;;;;4809254;29;32532;-67
2021/10/05 12:17:22;;;;;;;4.22;3.58;;;;;;;;;;4802745;29;33289;-66
2021/10/05 12:19:51;;;;;;;6.35;4.13;;;;;;;;;;4808588;29;33058;-64
2021/10/05 12:22:21;;;;;;;5.40;4.30;;;;;;;;;;4806658;29;34788;-65
2021/10/05 12:24:50;;;;;;;6.65;4.10;;;;;;;;;;4803394;29;32413;-66
2021/10/05 12:27:19;;;;;;;5.95;4.38;;;;;;;;;;4808703;29;32402;-65
2021/10/05 12:30:00;;;;;;;5.78;3.90;;;;;;;;;;4809333;29;32457;-67
2021/10/05 12:32:38;;;;;;;5.38;3.90;;;;;;;;;;4806854;29;34422;-65
2021/10/05 12:35:17;;;;;;;6.03;4.25;;;;;;;;;;4807486;29;32365;-64
2021/10/05 12:37:45;;;;;;;7.35;4.32;;;;;;;;;;4807496;29;32503;-68
2021/10/05 12:40:13;;;;;;;9.48;4.55;;;;;;;;;;4807827;29;32775;-66
2021/10/05 12:42:46;;;;;;;7.68;4.60;;;;;;;;;;4807779;29;32879;-67
2021/10/05 12:45:16;;;;;;;7.10;4.32;;;;;;;;;;4790147;29;34171;-64
2021/10/05 12:47:52;;;;;;;5.95;4.00;;;;;;;;;;4807044;29;32575;-65
2021/10/05 12:50:20;;;;;;;6.28;4.18;;;;;;;;;;4806954;29;32472;-64
2021/10/05 12:52:53;;;;;;;5.85;3.97;;;;;;;;;;4807656;29;32838;-64
2021/10/05 12:55:21;;;;;;;4.95;4.25;;;;;;;;;;4806784;29;34240;-64
2021/10/05 12:57:48;;;;;;;8.35;3.78;;;;;;;;;;4807182;29;33083;-64
2021/10/05 13:00:17;;;;;;;8.75;4.05;;;;;;;;;;4807559;29;32608;-64
2021/10/05 13:02:44;;;;;;;5.10;3.83;;;;;;;;;;4806662;29;32571;-67
2021/10/05 13:05:12;;;;;;;5.95;4.10;;;;;;;;;;4807982;29;32355;-67
2021/10/05 13:07:39;;;;;;;7.75;4.38;;;;;;;;;;4807624;29;33958;-67
2021/10/05 13:10:06;;;;;;;;;;;;;;;;;;4807850;29;32378;-64
2021/10/05 13:12:33;;;;;;;6.95;3.75;;;;;;;;;;4808505;29;32373;-66
2021/10/05 13:14:59;;;;;;;7.13;4.07;;;;;;;;;;4807833;29;32061;-64
2021/10/05 13:17:26;;;;;;;5.57;3.95;;;;;;;;;;4807625;29;34415;-64
2021/10/05 13:19:52;;;;;;;4.25;3.33;;;;;;;;;;4807100;29;32377;-65
2021/10/05 13:22:20;;;;;;;6.20;3.65;;;;;;;;;;4807427;29;32531;-66
2021/10/05 13:24:47;;;;;;;5.78;3.70;;;;;;;;;;4807210;29;32686;-64
2021/10/05 13:27:13;;;;;;;4.80;3.53;;;;;;;;;;4802181;29;33067;-64
2021/10/05 13:29:40;;;;;;;4.88;3.75;;;;;;;;;;4790268;29;34627;-64
2021/10/05 13:32:08;;;;;;;5.53;3.75;;;;;;;;;;4802148;29;32806;-64
2021/10/05 13:34:38;;;;;;;6.03;3.97;;;;;;;;;;4807202;29;32496;-65
2021/10/05 13:37:04;;;;;;;5.93;4.03;;;;;;;;;;4807221;29;32533;-66
2021/10/05 13:39:32;;;;;;;7.10;3.40;;;;;;;;;;4807318;29;34188;-64
2021/10/05 13:42:01;;;;;;;5.03;3.55;;;;;;;;;;4805956;29;32425;-63
2021/10/05 13:44:28;;;;;;;5.10;3.55;;;;;;;;;;4806196;29;32542;-65
2021/10/05 13:46:55;;;;;;;5.78;3.95;;;;;;;;;;4806741;29;32490;-67
2021/10/05 13:49:21;;;;;;;6.22;3.65;;;;;;;;;;4805467;29;32469;-64
2021/10/05 13:51:48;;;;;;;7.13;3.92;;;;;;;;;;4806192;29;34752;-64
2021/10/05 13:54:14;;;;;;;5.28;3.58;;;;;;;;;;4803408;29;32655;-68
2021/10/05 13:56:42;;;;;;;6.50;4.43;;;;;;;;;;4806511;29;32452;-66
2021/10/05 13:59:09;;;;;;;9.57;4.55;;;;;;;;;;4806559;29;32466;-65
2021/10/05 14:01:36;;;;;;;7.22;4.80;;;;;;;;;;4806080;29;34647;-65
2021/10/05 14:04:03;;;;;;;9.27;4.38;;;;;;;;;;4806557;29;32692;-66
2021/10/05 14:06:30;;;;;;;8.20;4.18;;;;;;;;;;4805412;29;32591;-63
2021/10/05 14:08:57;;;;;;;7.40;4.30;;;;;;;;;;4805616;29;32486;-67
2021/10/05 14:11:23;;;;;;;11.63;5.32;;;;;;;;;;4792763;29;33651;-64
2021/10/05 14:13:56;;;;;;;8.50;4.45;;;;;;;;;;4799584;29;34792;-65
2021/10/05 14:16:23;;;;;;;13.68;4.88;;;;;;;;;;4793531;23;32476;-65
2021/10/05 14:18:50;;;;;;;15.70;6.13;;;;;;;;;;4769916;29;32427;-66
2021/10/05 14:21:19;;;;;;;14.02;6.07;;;;;;;;;;4770181;29;32435;-67
2021/10/05 14:23:47;;;;;;;14.73;6.70;;;;;;;;;;4770111;29;34940;-64
2021/10/05 14:26:14;;;;;;;10.82;5.18;;;;;;;;;;4768376;29;32427;-65
2021/10/05 14:28:40;;;;;;;13.18;5.53;;;;;;;;;;4770191;29;32712;-63
2021/10/05 14:31:08;;;;;;;16.08;5.50;;;;;;;;;;4766402;29;32537;-63
2021/10/05 14:33:35;;;;;;;9.98;5.43;;;;;;;;;;4755869;29;33258;-63
2021/10/05 14:36:02;;;;;;;10.43;5.18;;;;;;;;;;4766266;29;34546;-66
2021/10/05 14:38:29;;;;;;;8.40;5.22;;;;;;;;;;4765640;29;32793;-65
2021/10/05 14:40:55;;;;;;;8.48;4.60;;;;;;;;;;4768108;29;32423;-67
2021/10/05 14:43:22;;;;;;;10.25;4.45;;;;;;;;;;4768543;29;32500;-63
2021/10/05 14:45:49;;;;;;;9.70;5.50;;;;;;;;;;4765985;29;35003;-63
2021/10/05 14:48:16;;;;;;;8.80;5.50;;;;;;;;;;4769733;29;32676;-64
2021/10/05 14:50:43;;;;;;;9.73;5.03;;;;;;;;;;4770811;29;32627;-64